Time;durP1;ratioP1;P1;durP2;ratioP2;P2;SDS_P1;SDS_P2;PMS_P1;PMS_P2;Temp;Humidity;BMP_temperature;BMP_pressure;BME280_temperature;BME280_humidity;BME280_pressure;Samples;Min_cycle;Max_cycle;Signal;HPM_P1;HPM_P2
2021/05/06 00:00:13;;;;;;;2.13;1.40;;;8.40;99.90;;;;;;5035427;28;20249;-73
2021/05/06 00:08:00;;;;;;;2.53;1.20;;;8.50;99.90;;;;;;5035125;28;20251;-73
2021/05/06 00:32:09;;;;;;;2.10;1.37;;;8.50;99.90;;;;;;5034290;28;20179;-73
2021/05/06 00:34:35;;;;;;;2.60;1.30;;;8.30;99.90;;;;;;5033999;28;20285;-73
2021/05/06 00:37:02;;;;;;;5.00;1.87;;;8.20;99.90;;;;;;5033777;28;20185;-73
2021/05/06 00:40:12;;;;;;;3.17;1.70;;;8.20;99.90;;;;;;5033936;28;20176;-72
2021/05/06 00:42:42;;;;;;;4.67;2.60;;;8.30;99.90;;;;;;5025758;28;20205;-73
2021/05/06 01:06:21;;;;;;;3.43;1.30;;;8.40;99.90;;;;;;5034348;28;20195;-73
2021/05/06 01:09:02;;;;;;;3.43;1.57;;;8.40;99.90;;;;;;5034190;28;20647;-73
2021/05/06 01:11:41;;;;;;;4.60;1.13;;;8.40;99.90;;;;;;5040153;28;20191;-73
2021/05/06 01:14:09;;;;;;;3.73;1.60;;;8.40;99.90;;;;;;5041309;28;20560;-73
2021/05/06 01:16:35;;;;;;;3.57;1.30;;;8.40;99.90;;;;;;5033819;28;20173;-73
2021/05/06 01:19:01;;;;;;;3.20;1.97;;;8.30;99.90;;;;;;5033818;28;20180;-73
2021/05/06 01:21:27;;;;;;;1.93;1.20;;;8.30;99.90;;;;;;5033726;28;20196;-73
2021/05/06 01:23:54;;;;;;;2.10;1.20;;;8.10;99.90;;;;;;5033380;28;20184;-73
2021/05/06 01:29:19;;;;;;;2.93;1.27;;;8.00;99.90;;;;;;5010576;28;20651;-73
2021/05/06 01:31:51;;;;;;;2.83;1.00;;;8.10;99.90;;;;;;5031101;28;20178;-72
2021/05/06 01:34:22;;;;;;;3.43;1.00;;;8.10;99.90;;;;;;5025841;28;20371;-73
2021/05/06 01:37:12;;;;;;;1.77;1.07;;;8.10;99.90;;;;;;5014929;28;20416;-73
2021/05/06 01:58:15;;;;;;;2.33;1.50;;;8.00;99.90;;;;;;5030165;28;20764;-73
2021/05/06 02:00:45;;;;;;;2.70;1.10;;;8.00;99.90;;;;;;5030237;28;20185;-73
2021/05/06 02:03:10;;;;;;;2.23;1.27;;;8.00;99.90;;;;;;5031202;28;20175;-73
2021/05/06 02:05:36;;;;;;;4.73;1.50;;;8.10;99.90;;;;;;5031884;28;20196;-72
2021/05/06 02:08:03;;;;;;;4.90;1.27;;;8.10;99.90;;;;;;5030590;28;20619;-73
2021/05/06 02:10:29;;;;;;;3.13;1.27;;;8.10;99.90;;;;;;5032208;28;20191;-73
2021/05/06 02:12:55;;;;;;;3.33;1.10;;;8.00;99.90;;;;;;5032126;28;20629;-73
2021/05/06 02:15:29;;;;;;;4.27;1.60;;;8.00;99.90;;;;;;5032095;28;20192;-73
2021/05/06 02:17:56;;;;;;;4.30;1.50;;;8.00;99.90;;;;;;5032104;28;20260;-73
2021/05/06 02:20:22;;;;;;;2.93;1.23;;;8.00;99.90;;;;;;5032121;28;20164;-73
2021/05/06 02:22:50;;;;;;;5.07;1.10;;;8.10;99.90;;;;;;5032207;28;20204;-73
2021/05/06 02:25:16;;;;;;;2.40;1.27;;;8.10;99.90;;;;;;5032047;28;20189;-73
2021/05/06 02:27:42;;;;;;;1.73;1.30;;;8.10;99.90;;;;;;5030762;28;20196;-73
2021/05/06 02:30:09;;;;;;;4.93;1.47;;;8.00;99.90;;;;;;5031946;28;20665;-73
2021/05/06 02:32:35;;;;;;;3.47;1.47;;;7.90;99.90;;;;;;5031909;28;20180;-73
2021/05/06 02:35:01;;;;;;;2.87;1.20;;;7.80;99.90;;;;;;5032094;28;20195;-73
2021/05/06 02:37:27;;;;;;;3.93;1.50;;;7.80;99.90;;;;;;5035910;28;20179;-73
2021/05/06 02:39:53;;;;;;;3.40;1.57;;;7.80;99.90;;;;;;5035821;28;20214;-73
2021/05/06 02:42:19;;;;;;;4.20;1.70;;;7.80;99.90;;;;;;5035620;28;20256;-73
2021/05/06 02:44:46;;;;;;;3.70;1.47;;;7.80;99.90;;;;;;5035724;28;20602;-73
2021/05/06 02:47:12;;;;;;;3.63;1.70;;;7.80;99.90;;;;;;5035573;28;20638;-73
2021/05/06 02:49:43;;;;;;;4.37;1.70;;;7.80;99.90;;;;;;5035968;28;20170;-72
2021/05/06 02:54:49;;;;;;;3.67;1.80;;;7.80;99.90;;;;;;5035589;28;20215;-73
2021/05/06 02:57:22;;;;;;;3.57;1.90;;;7.90;99.90;;;;;;5073961;22;20332;-76
2021/05/06 03:02:49;;;;;;;2.07;1.57;;;8.00;99.90;;;;;;5058258;28;20201;-75
2021/05/06 03:05:16;;;;;;;3.23;1.60;;;7.90;99.90;;;;;;5054430;28;20662;-75
2021/05/06 03:07:46;;;;;;;4.30;1.47;;;7.90;99.90;;;;;;5039317;28;20189;-76
2021/05/06 03:13:04;;;;;;;3.67;1.80;;;8.00;99.90;;;;;;5035916;28;20204;-76
2021/05/06 03:21:27;;;;;;;2.63;1.30;;;7.90;99.90;;;;;;5035400;28;20188;-76
2021/05/06 03:23:54;;;;;;;3.40;1.20;;;7.80;99.90;;;;;;5035322;28;20176;-76
2021/05/06 03:26:20;;;;;;;2.20;1.20;;;7.80;99.90;;;;;;5035282;28;20242;-76
2021/05/06 03:28:56;;;;;;;4.43;1.57;;;7.70;99.90;;;;;;5035295;28;20178;-75
2021/05/06 03:42:27;;;;;;;1.67;1.20;;;7.80;99.90;;;;;;5035089;28;20249;-76
2021/05/06 03:45:16;;;;;;;4.40;1.40;;;7.70;99.90;;;;;;5035017;28;20175;-76
2021/05/06 03:50:41;;;;;;;3.20;1.20;;;7.70;99.90;;;;;;5034991;28;20262;-76
2021/05/06 04:12:27;;;;;;;3.50;1.60;;;7.80;99.90;;;;;;5033734;28;20229;-78
2021/05/06 04:25:49;;;;;;;5.60;1.70;;;7.90;99.90;;;;;;5034337;28;20746;-76
2021/05/06 04:38:40;;;;;;;5.57;1.60;;;8.10;99.90;;;;;;5033682;28;20168;-76
2021/05/06 04:54:44;;;;;;;3.43;1.33;;;8.20;99.90;;;;;;5033453;28;20241;-76
2021/05/06 05:05:27;;;;;;;6.33;1.70;;;8.00;99.90;;;;;;5032389;28;20202;-76
2021/05/06 05:07:59;;;;;;;3.50;1.67;;;8.00;99.90;;;;;;5035736;28;20193;-76
2021/05/06 05:13:18;;;;;;;3.23;1.80;;;8.00;99.90;;;;;;5033058;28;20184;-76
2021/05/06 05:24:15;;;;;;;4.00;1.40;;;7.90;99.90;;;;;;5033366;28;20174;-76
2021/05/06 05:26:41;;;;;;;4.80;1.90;;;7.90;99.90;;;;;;5031722;28;20746;-76
2021/05/06 05:29:06;;;;;;;4.47;1.70;;;7.90;99.90;;;;;;5033075;28;20210;-76
2021/05/06 05:31:38;;;;;;;3.30;1.80;;;8.00;99.90;;;;;;5033391;28;20182;-76
2021/05/06 05:34:20;;;;;;;3.83;1.93;;;8.10;99.90;;;;;;5033052;28;20189;-76
2021/05/06 05:36:48;;;;;;;4.77;1.90;;;8.20;99.90;;;;;;5031987;28;20210;-76
2021/05/06 06:05:54;;;;;;;7.20;2.37;;;8.60;99.90;;;;;;5030154;28;20231;-73
2021/05/06 06:08:23;;;;;;;5.47;2.10;;;8.60;99.90;;;;;;5023861;28;20175;-72
2021/05/06 06:14:09;;;;;;;3.70;2.37;;;8.80;99.90;;;;;;5735207;22;20231;-70
2021/05/06 06:16:38;;;;;;;5.37;2.20;;;8.80;99.90;;;;;;5036665;28;20209;-71
2021/05/06 06:19:05;;;;;;;4.70;2.10;;;8.70;99.90;;;;;;5047003;28;20175;-73
2021/05/06 06:24:10;;;;;;;5.77;1.93;;;8.90;99.90;;;;;;5052819;28;20195;-73
2021/05/06 06:26:35;;;;;;;4.53;2.57;;;9.00;99.90;;;;;;5066858;22;20231;-76
2021/05/06 06:29:07;;;;;;;4.27;2.40;;;9.10;99.90;;;;;;5015212;28;20519;-76
2021/05/06 06:31:54;;;;;;;7.17;2.20;;;9.20;99.90;;;;;;5052301;28;20674;-76
2021/05/06 06:34:18;;;;;;;4.60;2.27;;;9.30;99.90;;;;;;5043390;28;20180;-76
2021/05/06 06:36:45;;;;;;;3.83;1.83;;;9.30;99.90;;;;;;5041237;28;20254;-76
2021/05/06 06:39:14;;;;;;;5.37;2.33;;;9.30;99.90;;;;;;5036680;28;20519;-77
2021/05/06 06:41:40;;;;;;;4.43;2.03;;;9.40;99.90;;;;;;5052350;28;20199;-76
2021/05/06 06:44:06;;;;;;;5.63;2.10;;;9.30;99.90;;;;;;5051859;28;20169;-76
2021/05/06 06:46:32;;;;;;;3.97;1.83;;;9.40;99.90;;;;;;5040832;28;20201;-76
2021/05/06 06:48:58;;;;;;;5.53;2.43;;;9.50;99.90;;;;;;5052656;28;20644;-76
2021/05/06 06:51:24;;;;;;;5.67;2.70;;;9.60;99.90;;;;;;5035257;28;20642;-77
2021/05/06 06:53:50;;;;;;;6.23;2.80;;;9.70;99.90;;;;;;5035076;28;20172;-77
2021/05/06 06:56:16;;;;;;;3.97;1.90;;;9.80;99.90;;;;;;5033504;28;20283;-76
2021/05/06 06:58:42;;;;;;;4.50;1.83;;;10.00;99.90;;;;;;5049713;28;20257;-77
2021/05/06 07:01:08;;;;;;;2.67;1.40;;;10.00;99.90;;;;;;5052648;28;20616;-77
2021/05/06 07:03:35;;;;;;;3.30;1.20;;;10.10;99.90;;;;;;5052770;28;20179;-77
2021/05/06 07:06:00;;;;;;;3.53;1.40;;;10.10;99.90;;;;;;5052636;28;20654;-76
2021/05/06 07:18:48;;;;;;;4.97;2.30;;;10.40;99.90;;;;;;5214384;22;20273;-73
2021/05/06 07:21:14;;;;;;;4.50;1.30;;;10.50;99.90;;;;;;5009297;28;20198;-70
2021/05/06 07:23:39;;;;;;;3.40;1.33;;;10.60;99.90;;;;;;5016883;28;20187;-72
2021/05/06 07:26:06;;;;;;;2.30;1.20;;;10.50;99.90;;;;;;5028804;28;20173;-73
2021/05/06 07:28:32;;;;;;;3.13;1.30;;;10.60;99.90;;;;;;5013239;28;20616;-73
2021/05/06 07:31:03;;;;;;;3.00;1.40;;;10.70;99.90;;;;;;5013148;28;20233;-72
2021/05/06 07:33:30;;;;;;;3.03;1.23;;;10.70;99.90;;;;;;5012588;28;20797;-72
2021/05/06 07:35:57;;;;;;;4.43;1.50;;;10.90;99.90;;;;;;5014744;28;20209;-72
2021/05/06 07:38:22;;;;;;;3.57;1.40;;;10.80;99.90;;;;;;5013854;28;20202;-72
2021/05/06 07:40:50;;;;;;;4.17;2.00;;;10.70;99.90;;;;;;5014550;28;20548;-72
2021/05/06 07:43:15;;;;;;;4.17;1.40;;;10.70;99.90;;;;;;5014532;28;20667;-72
2021/05/06 07:45:41;;;;;;;4.10;1.20;;;10.80;99.90;;;;;;5014668;28;20174;-73
2021/05/06 07:48:07;;;;;;;3.57;1.33;;;10.70;99.90;;;;;;5014293;28;20198;-72
2021/05/06 07:50:33;;;;;;;4.20;1.27;;;10.60;99.90;;;;;;5012898;28;20191;-72
2021/05/06 07:53:11;;;;;;;3.27;1.23;;;10.70;99.90;;;;;;5028609;28;20285;-73
2021/05/06 07:55:37;;;;;;;4.07;1.33;;;10.80;99.90;;;;;;5014665;28;20178;-73
2021/05/06 07:58:04;;;;;;;3.23;1.07;;;10.90;99.90;;;;;;5014622;28;20201;-73
2021/05/06 08:00:30;;;;;;;2.77;1.17;;;10.90;99.90;;;;;;5014734;28;20174;-73
2021/05/06 08:02:56;;;;;;;2.37;1.50;;;11.00;99.90;;;;;;5014674;28;20194;-73
2021/05/06 08:05:24;;;;;;;2.27;1.43;;;11.00;99.90;;;;;;5011807;28;20185;-73
2021/05/06 08:07:50;;;;;;;4.50;1.33;;;11.00;99.90;;;;;;5012447;28;20652;-73
2021/05/06 08:10:16;;;;;;;4.07;1.70;;;10.90;99.90;;;;;;5013494;28;20704;-73
2021/05/06 08:12:43;;;;;;;2.43;1.23;;;11.00;99.90;;;;;;5013898;28;20171;-73
2021/05/06 08:15:10;;;;;;;2.67;1.40;;;11.00;99.90;;;;;;5011772;28;20286;-73
2021/05/06 08:17:37;;;;;;;4.43;1.37;;;11.00;99.90;;;;;;5013819;28;20217;-73
2021/05/06 08:20:08;;;;;;;3.80;1.40;;;11.10;99.90;;;;;;5026058;28;20244;-73
2021/05/06 08:22:34;;;;;;;3.37;1.40;;;10.90;99.90;;;;;;5013905;28;20198;-73
2021/05/06 08:25:00;;;;;;;3.20;1.17;;;11.00;99.90;;;;;;5013422;28;20185;-72
2021/05/06 08:27:26;;;;;;;4.27;1.50;;;11.00;99.90;;;;;;5013964;28;20198;-73
2021/05/06 08:29:52;;;;;;;3.30;1.53;;;11.00;99.90;;;;;;5012803;28;20190;-72
2021/05/06 08:32:18;;;;;;;3.77;1.20;;;11.00;99.90;;;;;;5023167;28;20194;-73
2021/05/06 08:34:43;;;;;;;5.87;1.70;;;10.90;99.90;;;;;;5023941;28;20193;-73
2021/05/06 08:37:09;;;;;;;3.07;1.30;;;10.80;99.90;;;;;;5021461;28;20226;-73
2021/05/06 08:39:35;;;;;;;3.43;1.40;;;10.80;99.90;;;;;;5020261;28;20555;-73
2021/05/06 08:42:02;;;;;;;7.03;1.60;;;10.80;99.90;;;;;;5015152;28;20208;-73
2021/05/06 08:44:31;;;;;;;4.27;1.43;;;10.80;99.90;;;;;;5022438;28;20192;-73
2021/05/06 08:47:11;;;;;;;3.30;1.17;;;10.80;99.90;;;;;;5025699;28;20170;-73
2021/05/06 08:49:38;;;;;;;2.83;1.37;;;10.80;99.90;;;;;;5022105;28;20184;-73
2021/05/06 08:52:07;;;;;;;2.80;1.37;;;10.80;99.90;;;;;;5017281;28;20220;-73
2021/05/06 08:54:33;;;;;;;2.93;1.50;;;10.80;99.90;;;;;;5012250;28;20188;-72
2021/05/06 08:56:59;;;;;;;2.27;1.00;;;10.80;99.90;;;;;;5024856;28;20185;-74
2021/05/06 08:59:28;;;;;;;4.40;1.67;;;10.70;99.90;;;;;;5022878;28;20187;-73
2021/05/06 09:01:55;;;;;;;3.93;1.17;;;10.70;99.90;;;;;;5011099;28;20197;-74
2021/05/06 09:04:21;;;;;;;2.23;1.30;;;10.70;99.90;;;;;;5015040;28;20197;-73
2021/05/06 09:07:04;;;;;;;3.13;1.20;;;10.70;99.90;;;;;;5020922;28;20213;-73
2021/05/06 09:09:33;;;;;;;4.63;1.37;;;10.70;99.90;;;;;;5009619;28;20198;-73
2021/05/06 09:12:06;;;;;;;1.73;1.00;;;10.70;99.90;;;;;;5012025;28;20224;-73
2021/05/06 09:14:44;;;;;;;3.13;1.23;;;10.50;99.90;;;;;;5024826;28;20186;-73
2021/05/06 09:17:32;;;;;;;2.70;1.20;;;10.40;99.90;;;;;;5025926;28;20207;-73
2021/05/06 09:20:08;;;;;;;3.13;1.23;;;10.50;99.90;;;;;;5017566;28;20209;-73
2021/05/06 09:22:37;;;;;;;2.43;1.00;;;10.50;99.90;;;;;;5033137;28;20259;-73
2021/05/06 09:25:25;;;;;;;2.73;1.07;;;10.50;99.90;;;;;;5015944;28;20175;-73
2021/05/06 09:28:13;;;;;;;3.70;1.30;;;10.50;99.90;;;;;;5015130;28;20198;-72
2021/05/06 09:30:50;;;;;;;3.23;1.20;;;10.50;99.90;;;;;;5029024;28;20613;-72
2021/05/06 09:33:16;;;;;;;3.13;1.20;;;10.40;99.90;;;;;;5007233;28;20182;-72
2021/05/06 09:35:47;;;;;;;2.20;1.20;;;10.30;99.90;;;;;;5013626;28;20186;-73
2021/05/06 09:38:26;;;;;;;4.57;1.20;;;10.20;99.90;;;;;;5010915;28;20199;-75
2021/05/06 09:40:52;;;;;;;2.07;1.13;;;10.10;99.90;;;;;;5022217;28;20196;-75
2021/05/06 09:43:23;;;;;;;5.07;1.40;;;10.10;99.90;;;;;;5024213;28;20198;-75
2021/05/06 09:45:49;;;;;;;3.17;1.43;;;10.10;99.90;;;;;;5020184;28;20185;-75
2021/05/06 09:48:16;;;;;;;4.70;1.30;;;10.00;99.90;;;;;;5018336;28;20197;-74
2021/05/06 09:50:45;;;;;;;2.70;1.30;;;9.90;99.90;;;;;;5020788;28;20608;-77
2021/05/06 09:53:17;;;;;;;3.20;1.10;;;9.90;99.90;;;;;;5029360;28;20590;-78
2021/05/06 09:55:45;;;;;;;4.80;1.37;;;9.80;99.90;;;;;;5028303;28;20652;-78
2021/05/06 09:58:26;;;;;;;3.70;1.10;;;9.90;99.90;;;;;;5033514;28;20228;-76
2021/05/06 10:00:52;;;;;;;3.60;1.23;;;9.90;99.90;;;;;;5029147;28;20189;-75
2021/05/06 10:03:25;;;;;;;3.20;1.30;;;9.80;99.90;;;;;;5010241;28;20202;-75
2021/05/06 10:05:52;;;;;;;4.83;1.47;;;9.70;99.90;;;;;;5009724;28;20187;-77
2021/05/06 10:08:19;;;;;;;6.60;2.10;;;9.70;99.90;;;;;;5024096;28;20206;-75
2021/05/06 10:10:44;;;;;;;4.27;1.50;;;9.80;99.90;;;;;;5015850;28;20175;-76
2021/05/06 10:13:10;;;;;;;4.93;1.77;;;9.70;99.90;;;;;;5005409;28;20874;-74
2021/05/06 10:15:41;;;;;;;4.90;1.33;;;9.70;99.90;;;;;;5039460;28;20253;-74
2021/05/06 10:18:08;;;;;;;3.17;1.27;;;9.70;99.90;;;;;;5043216;28;20206;-81
2021/05/06 10:20:34;;;;;;;3.00;1.40;;;9.50;99.90;;;;;;5023280;28;20209;-79
2021/05/06 10:23:01;;;;;;;4.67;1.77;;;9.30;99.90;;;;;;5014876;28;20284;-75
2021/05/06 10:25:27;;;;;;;6.03;2.00;;;9.30;99.90;;;;;;5018386;28;20177;-76
2021/05/06 10:27:54;;;;;;;3.53;1.80;;;9.30;99.90;;;;;;5013440;28;20196;-75
2021/05/06 10:30:21;;;;;;;4.60;2.17;;;9.20;99.90;;;;;;5028357;28;20176;-74
2021/05/06 10:32:47;;;;;;;3.47;1.67;;;9.20;99.90;;;;;;5024963;28;20259;-76
2021/05/06 10:35:21;;;;;;;4.03;1.90;;;9.20;99.90;;;;;;5017515;28;20184;-75
2021/05/06 10:37:53;;;;;;;3.17;1.90;;;9.10;99.90;;;;;;5011429;28;20205;-77
2021/05/06 10:40:22;;;;;;;3.70;1.70;;;9.20;99.90;;;;;;5017078;28;20660;-77
2021/05/06 10:42:52;;;;;;;7.77;2.70;;;9.10;99.90;;;;;;5026134;28;20205;-77
2021/05/06 10:45:18;;;;;;;6.43;2.73;;;9.10;99.90;;;;;;5011136;28;20175;-75
2021/05/06 10:47:45;;;;;;;6.07;2.00;;;9.10;99.90;;;;;;5016452;28;20205;-77
2021/05/06 10:50:20;;;;;;;5.97;1.87;;;9.20;99.90;;;;;;5017810;28;20167;-76
2021/05/06 10:52:50;;;;;;;5.07;2.43;;;9.30;99.90;;;;;;5029058;28;20179;-75
2021/05/06 10:55:35;;;;;;;4.23;1.70;;;9.20;99.90;;;;;;5010210;28;20269;-76
2021/05/06 10:58:20;;;;;;;2.83;2.10;;;9.20;99.90;;;;;;5002685;28;20202;-76
2021/05/06 11:00:56;;;;;;;2.70;1.60;;;9.10;99.90;;;;;;5018193;28;20264;-75
2021/05/06 11:03:25;;;;;;;3.03;1.60;;;9.00;99.90;;;;;;5015732;28;20629;-75
2021/05/06 11:05:51;;;;;;;4.77;2.00;;;8.90;99.90;;;;;;5010236;28;20714;-75
2021/05/06 11:08:22;;;;;;;6.00;2.50;;;9.00;99.90;;;;;;5011064;28;20202;-75
2021/05/06 11:10:48;;;;;;;3.87;2.17;;;8.90;99.90;;;;;;5016517;28;20196;-74
2021/05/06 11:13:16;;;;;;;4.27;2.30;;;8.90;99.90;;;;;;5011925;28;20196;-76
2021/05/06 11:15:42;;;;;;;2.60;2.37;;;9.00;99.90;;;;;;5009225;28;20592;-74
2021/05/06 11:18:10;;;;;;;3.77;2.00;;;9.10;99.90;;;;;;5015161;28;20208;-75
2021/05/06 11:20:36;;;;;;;4.53;2.13;;;9.10;99.90;;;;;;5015381;28;20194;-75
2021/05/06 11:23:02;;;;;;;3.87;2.00;;;9.00;99.90;;;;;;5015439;28;20198;-75
2021/05/06 11:25:28;;;;;;;3.17;2.13;;;9.00;99.90;;;;;;5008936;28;20186;-75
2021/05/06 11:28:04;;;;;;;3.20;2.20;;;9.10;99.90;;;;;;5006106;28;20201;-76
2021/05/06 11:30:43;;;;;;;4.00;2.33;;;9.20;99.90;;;;;;5007700;28;20542;-75
2021/05/06 11:33:21;;;;;;;4.97;2.00;;;9.20;99.90;;;;;;5015719;28;20676;-75
2021/05/06 11:36:10;;;;;;;4.50;2.37;;;9.40;99.90;;;;;;5012017;28;20184;-75
2021/05/06 11:38:36;;;;;;;3.00;1.70;;;9.30;99.90;;;;;;5013945;28;20201;-76
2021/05/06 11:41:37;;;;;;;2.93;1.97;;;9.30;99.90;;;;;;5013543;28;20178;-75
2021/05/06 11:44:07;;;;;;;4.30;1.93;;;9.00;99.90;;;;;;4970268;28;20309;-75
2021/05/06 11:46:39;;;;;;;3.47;2.30;;;8.90;99.90;;;;;;5007060;28;20209;-76
2021/05/06 11:49:11;;;;;;;3.43;1.70;;;9.00;99.90;;;;;;5013070;28;20210;-75
2021/05/06 11:51:41;;;;;;;2.60;1.90;;;9.00;99.90;;;;;;5013541;28;20223;-75
2021/05/06 11:54:22;;;;;;;9.07;2.00;;;8.90;99.90;;;;;;5010914;28;20181;-76
2021/05/06 11:57:00;;;;;;;3.40;1.90;;;9.10;99.90;;;;;;5013629;28;20209;-75
2021/05/06 11:59:28;;;;;;;2.87;1.70;;;9.10;99.90;;;;;;5013793;28;20189;-76
2021/05/06 12:01:54;;;;;;;4.93;2.87;;;8.90;99.90;;;;;;5012740;28;20208;-75
2021/05/06 12:04:25;;;;;;;4.40;2.77;;;8.90;99.90;;;;;;5017796;28;20205;-75
2021/05/06 12:06:51;;;;;;;3.40;3.10;;;8.80;99.90;;;;;;5018841;28;20180;-75
2021/05/06 12:09:26;;;;;;;3.70;2.40;;;8.80;99.90;;;;;;5015278;28;20581;-74
2021/05/06 12:11:52;;;;;;;4.97;2.37;;;8.70;99.90;;;;;;5026861;28;20198;-75
2021/05/06 12:14:29;;;;;;;4.70;2.83;;;8.50;99.90;;;;;;5025398;28;20230;-74
2021/05/06 12:16:54;;;;;;;5.50;3.93;;;8.60;99.90;;;;;;5017066;28;20176;-75
2021/05/06 12:19:20;;;;;;;4.33;3.17;;;8.60;99.90;;;;;;5026142;28;20683;-75
2021/05/06 12:21:48;;;;;;;4.43;3.57;;;8.70;99.90;;;;;;5025301;28;20203;-75
2021/05/06 12:24:29;;;;;;;3.77;2.80;;;8.70;99.90;;;;;;5017250;28;20177;-75
2021/05/06 12:26:55;;;;;;;3.73;2.50;;;8.70;99.90;;;;;;5014587;28;20184;-74
2021/05/06 12:29:27;;;;;;;2.67;2.13;;;8.80;99.90;;;;;;5027882;28;20177;-75
2021/05/06 12:31:53;;;;;;;4.37;2.80;;;8.80;99.90;;;;;;5027204;28;20185;-76
2021/05/06 12:34:20;;;;;;;4.90;3.17;;;8.70;99.90;;;;;;5018149;28;20184;-77
2021/05/06 12:36:58;;;;;;;3.93;2.80;;;8.80;99.90;;;;;;5018782;28;20185;-76
2021/05/06 12:39:25;;;;;;;3.67;2.73;;;8.80;99.90;;;;;;5016289;28;20173;-78
2021/05/06 12:41:57;;;;;;;5.23;3.03;;;8.70;99.90;;;;;;5029156;28;20197;-77
2021/05/06 12:44:39;;;;;;;3.43;2.93;;;8.60;99.90;;;;;;5023298;28;20261;-77
2021/05/06 12:47:20;;;;;;;4.37;3.30;;;8.60;99.90;;;;;;5018187;28;20240;-77
2021/05/06 12:50:04;;;;;;;4.53;2.53;;;8.70;99.90;;;;;;5018743;28;20643;-76
2021/05/06 12:52:36;;;;;;;3.67;2.87;;;8.70;99.90;;;;;;5019028;28;20185;-76
2021/05/06 12:55:27;;;;;;;4.40;2.50;;;8.90;99.90;;;;;;5011562;28;20220;-76
2021/05/06 12:58:17;;;;;;;3.27;2.20;;;8.80;99.90;;;;;;5010194;28;20209;-76
2021/05/06 13:00:45;;;;;;;41.80;5.60;;;8.90;99.90;;;;;;5003340;28;20269;-76
2021/05/06 13:03:13;;;;;;;8.47;3.57;;;9.00;99.90;;;;;;5010442;28;20692;-77
2021/05/06 13:05:46;;;;;;;3.17;2.20;;;9.00;99.90;;;;;;5013507;28;20189;-77
2021/05/06 13:08:12;;;;;;;5.13;2.87;;;9.10;99.90;;;;;;5013410;28;20247;-77
2021/05/06 13:10:40;;;;;;;4.30;2.60;;;9.00;99.90;;;;;;5013520;28;20186;-76
2021/05/06 13:13:08;;;;;;;5.37;3.40;;;8.90;99.90;;;;;;5028946;28;20683;-76
2021/05/06 13:15:49;;;;;;;5.30;3.50;;;8.90;99.90;;;;;;5013292;28;20194;-76
2021/05/06 13:18:15;;;;;;;4.63;2.67;;;8.80;99.90;;;;;;5013581;28;20277;-75
2021/05/06 13:20:42;;;;;;;3.57;2.80;;;8.90;99.90;;;;;;5012485;28;20202;-74
2021/05/06 13:23:10;;;;;;;5.53;3.17;;;9.00;99.90;;;;;;5013189;28;20197;-75
2021/05/06 13:25:50;;;;;;;3.80;2.37;;;9.10;99.90;;;;;;5012900;28;20197;-75
2021/05/06 13:28:19;;;;;;;4.93;3.03;;;9.00;99.90;;;;;;5011825;28;20202;-75
2021/05/06 13:30:46;;;;;;;4.73;3.03;;;9.00;99.90;;;;;;5015532;28;20531;-74
2021/05/06 13:33:14;;;;;;;3.97;2.67;;;9.10;99.90;;;;;;5013166;28;20729;-76
2021/05/06 13:35:40;;;;;;;4.80;3.17;;;8.90;99.90;;;;;;5000436;28;20186;-76
2021/05/06 13:38:06;;;;;;;3.97;2.87;;;8.90;99.90;;;;;;4999349;28;20202;-76
2021/05/06 13:40:32;;;;;;;3.93;2.83;;;9.10;99.90;;;;;;5016139;28;20535;-76
2021/05/06 13:42:57;;;;;;;6.23;2.80;;;9.10;99.90;;;;;;5010848;28;20278;-76
2021/05/06 13:45:23;;;;;;;4.47;3.00;;;9.20;99.90;;;;;;5009646;28;20608;-76
2021/05/06 13:47:49;;;;;;;3.07;2.63;;;9.20;99.90;;;;;;5011859;28;20591;-75
2021/05/06 13:50:18;;;;;;;4.77;2.87;;;9.30;99.90;;;;;;5009450;28;20504;-75
2021/05/06 13:52:44;;;;;;;3.27;2.53;;;9.30;99.90;;;;;;5010955;28;20178;-75
2021/05/06 13:55:12;;;;;;;4.27;2.90;;;9.20;99.90;;;;;;5012808;28;20177;-75
2021/05/06 13:57:38;;;;;;;3.07;2.57;;;9.20;99.90;;;;;;5011661;28;20202;-75
2021/05/06 14:00:05;;;;;;;4.10;3.23;;;9.30;99.90;;;;;;5012002;28;20664;-76
2021/05/06 14:02:31;;;;;;;3.53;2.73;;;9.30;99.90;;;;;;5011671;28;20198;-76
2021/05/06 14:04:56;;;;;;;4.07;3.00;;;9.30;99.90;;;;;;5011808;28;20208;-76
2021/05/06 14:07:22;;;;;;;2.60;2.40;;;9.30;99.90;;;;;;5012459;28;20184;-75
2021/05/06 14:09:49;;;;;;;3.60;3.10;;;9.30;99.90;;;;;;5027631;28;20181;-76
2021/05/06 14:12:15;;;;;;;3.73;2.97;;;9.30;99.90;;;;;;5012472;28;20181;-76
2021/05/06 14:14:41;;;;;;;3.50;3.07;;;9.30;99.90;;;;;;5012517;28;20228;-75
2021/05/06 14:17:06;;;;;;;5.27;4.40;;;9.30;99.90;;;;;;5012380;28;20809;-75
2021/05/06 14:19:32;;;;;;;6.17;4.40;;;9.20;99.90;;;;;;5012336;28;20521;-75
2021/05/06 14:21:57;;;;;;;8.27;5.60;;;9.30;99.90;;;;;;5012367;28;20272;-76
2021/05/06 14:24:23;;;;;;;12.83;7.00;;;9.10;99.90;;;;;;5012487;28;20263;-75
2021/05/06 14:26:50;;;;;;;6.00;4.67;;;9.10;99.90;;;;;;5012343;28;20193;-75
2021/05/06 14:29:17;;;;;;;4.90;4.10;;;9.20;99.90;;;;;;5012466;28;20641;-75
2021/05/06 14:31:43;;;;;;;3.47;3.07;;;9.30;99.90;;;;;;5017742;28;20182;-76
2021/05/06 14:34:09;;;;;;;4.40;4.00;;;9.30;99.90;;;;;;5016312;28;20175;-76
2021/05/06 14:36:35;;;;;;;3.70;3.40;;;9.40;99.90;;;;;;5016499;28;20186;-75
2021/05/06 14:39:02;;;;;;;7.27;4.30;;;9.40;99.90;;;;;;5016091;28;20327;-75
2021/05/06 14:41:29;;;;;;;8.23;4.50;;;9.40;99.90;;;;;;5016178;28;20642;-75
2021/05/06 14:43:56;;;;;;;6.23;4.27;;;9.30;99.90;;;;;;5016122;28;20247;-74
2021/05/06 14:46:22;;;;;;;8.27;4.70;;;9.30;99.90;;;;;;5016162;28;20179;-76
2021/05/06 14:48:48;;;;;;;17.20;9.77;;;9.30;99.90;;;;;;5015999;28;20264;-75
2021/05/06 14:51:14;;;;;;;10.10;6.87;;;9.30;99.90;;;;;;5015983;28;20260;-75
2021/05/06 14:53:40;;;;;;;5.70;4.50;;;9.40;99.90;;;;;;5031457;28;20595;-76
2021/05/06 14:56:06;;;;;;;7.67;4.67;;;9.30;99.90;;;;;;5014834;28;20282;-75
2021/05/06 14:58:31;;;;;;;7.23;4.53;;;9.30;99.90;;;;;;5015855;28;20284;-76
2021/05/06 15:00:58;;;;;;;7.70;5.27;;;9.30;99.90;;;;;;5015828;28;20191;-75
2021/05/06 15:03:24;;;;;;;6.13;4.67;;;9.20;99.90;;;;;;5015706;28;20320;-75
2021/05/06 15:05:49;;;;;;;5.97;4.70;;;9.10;99.90;;;;;;5015613;28;20719;-75
2021/05/06 15:08:17;;;;;;;8.80;5.70;;;9.10;99.90;;;;;;5015710;28;20201;-75
2021/05/06 15:10:44;;;;;;;6.27;5.23;;;9.10;99.90;;;;;;5015544;28;20186;-75
2021/05/06 15:13:09;;;;;;;5.67;3.67;;;9.20;99.90;;;;;;5015566;28;20289;-75
2021/05/06 15:15:35;;;;;;;7.77;3.50;;;9.30;99.90;;;;;;5015624;28;20242;-75
2021/05/06 15:18:01;;;;;;;2.90;2.70;;;9.20;99.90;;;;;;5015527;28;20630;-75
2021/05/06 15:20:26;;;;;;;4.33;3.00;;;9.30;99.90;;;;;;5013837;28;20200;-74
2021/05/06 15:22:53;;;;;;;5.33;3.03;;;9.20;99.90;;;;;;5014434;28;20203;-75
2021/05/06 15:25:20;;;;;;;5.67;3.70;;;9.10;99.90;;;;;;5014683;28;20192;-75
2021/05/06 15:27:46;;;;;;;4.80;3.70;;;9.00;99.90;;;;;;5014654;28;20203;-73
2021/05/06 15:30:17;;;;;;;6.87;4.70;;;9.00;99.90;;;;;;5016475;28;20186;-72
2021/05/06 15:32:43;;;;;;;6.83;5.83;;;8.90;99.90;;;;;;5014883;28;20190;-72
2021/05/06 15:35:10;;;;;;;6.03;4.43;;;8.80;99.90;;;;;;5042391;28;20201;-74
2021/05/06 15:37:36;;;;;;;5.00;4.47;;;8.80;99.90;;;;;;5014910;28;20205;-73
2021/05/06 15:40:07;;;;;;;6.80;5.13;;;8.80;99.90;;;;;;5015414;28;20267;-74
2021/05/06 15:42:33;;;;;;;6.93;5.83;;;9.00;99.90;;;;;;5014253;28;20209;-74
2021/05/06 15:44:58;;;;;;;9.43;6.83;;;9.00;99.90;;;;;;5010315;28;20185;-74
2021/05/06 15:47:24;;;;;;;9.77;6.20;;;9.10;99.90;;;;;;5014360;28;20292;-73
2021/05/06 15:49:50;;;;;;;12.10;6.93;;;9.10;99.90;;;;;;5014287;28;20272;-74
2021/05/06 15:52:18;;;;;;;7.17;5.30;;;9.10;99.90;;;;;;5011051;28;20198;-75
2021/05/06 15:54:44;;;;;;;8.43;5.77;;;9.10;99.90;;;;;;5016990;28;20194;-74
2021/05/06 15:57:10;;;;;;;13.20;8.43;;;9.20;99.90;;;;;;5005772;28;20213;-75
2021/05/06 15:59:36;;;;;;;10.83;7.47;;;9.10;99.90;;;;;;5015326;28;20177;-74
2021/05/06 16:02:04;;;;;;;22.57;10.50;;;9.10;99.90;;;;;;5014870;28;20296;-74
2021/05/06 16:04:34;;;;;;;11.87;7.20;;;9.00;99.90;;;;;;5022633;28;20773;-73
2021/05/06 16:07:00;;;;;;;4.63;4.23;;;9.00;99.90;;;;;;5024383;28;20187;-71
2021/05/06 16:09:26;;;;;;;5.07;3.77;;;9.00;99.90;;;;;;5024652;28;20184;-74
2021/05/06 16:11:53;;;;;;;6.83;3.93;;;9.00;99.90;;;;;;5017920;28;20212;-74
2021/05/06 16:14:19;;;;;;;7.93;5.90;;;9.10;99.90;;;;;;5024931;28;20263;-74
2021/05/06 16:16:45;;;;;;;4.53;4.00;;;9.10;99.90;;;;;;5024905;28;20204;-74
2021/05/06 16:19:11;;;;;;;5.00;3.20;;;9.10;99.90;;;;;;5020811;28;20293;-75
2021/05/06 16:21:37;;;;;;;5.20;3.50;;;9.20;99.90;;;;;;4997079;28;20229;-76
2021/05/06 16:24:06;;;;;;;3.80;3.47;;;9.10;99.90;;;;;;5011342;28;20188;-76
2021/05/06 16:26:32;;;;;;;3.60;3.07;;;9.20;99.90;;;;;;5026654;28;20176;-74
2021/05/06 16:28:58;;;;;;;4.77;3.37;;;9.20;99.90;;;;;;5023569;28;20198;-75
2021/05/06 16:31:25;;;;;;;4.30;3.33;;;9.30;99.90;;;;;;5021459;28;20201;-75
2021/05/06 16:33:59;;;;;;;3.33;2.80;;;9.20;99.90;;;;;;5006500;28;20174;-75
2021/05/06 16:44:30;;;;;;;5.10;3.10;;;9.20;99.90;;;;;;5012560;28;20632;-74
2021/05/06 16:47:00;;;;;;;11.03;3.70;;;9.20;99.90;;;;;;5012920;28;20181;-72